Schedule Details


Flight Number: CTN4467
Departure: Zurich (LSZH) at 15:05
Arrival: Cilipi (LDDU) at 17:00
Route: DEGES?N871?MADEB?N606?ELMEM?L607?GEDSO?DCT?TUTIV?DCT?GEMKA?L607?NERRA

Weather Information
LSZH 191020Z 25014KT 8000 -SHRA SCT013 BKN022 04/02 Q1023 TEMPO 3000 SHRA
LDDU 191030Z 17007KT 9999 FEW023 BKN050 13/09 Q1019 BECMG 14008KT
Schedule Frequency

Route Map